createdAt,value
2019-01-10T00:01:25.250Z,76.43
2019-01-10T00:03:56.148Z,76.47
2019-01-10T00:06:27.071Z,76.51
2019-01-10T00:08:57.990Z,76.36
2019-01-10T00:11:28.857Z,76.59
2019-01-10T00:13:59.776Z,76.68
2019-01-10T00:16:30.666Z,76.51
2019-01-10T00:19:01.925Z,76.67
2019-01-10T00:21:32.808Z,76.57
2019-01-10T00:24:03.696Z,76.87
2019-01-10T00:26:34.594Z,76.75
2019-01-10T00:29:05.567Z,76.77
2019-01-10T00:31:36.505Z,76.64
2019-01-10T00:34:07.693Z,77.08
2019-01-10T00:36:38.574Z,77.05
2019-01-10T00:39:10.003Z,77.17
2019-01-10T00:41:40.930Z,76.85
2019-01-10T00:44:11.920Z,76.67
2019-01-10T00:46:42.803Z,76.45
2019-01-10T00:49:13.678Z,76.98
2019-01-10T00:51:44.651Z,76.89
2019-01-10T00:54:15.530Z,76.87
2019-01-10T00:56:46.538Z,76.86
2019-01-10T00:59:17.415Z,76.87
2019-01-10T01:01:48.366Z,76.67
2019-01-10T01:04:19.307Z,76.55
2019-01-10T01:06:50.189Z,76.49
2019-01-10T01:09:21.159Z,76.24
2019-01-10T01:11:52.527Z,76.79
2019-01-10T01:14:23.900Z,76.74
2019-01-10T01:16:54.792Z,76.34
2019-01-10T01:19:25.681Z,76.76
2019-01-10T01:21:56.606Z,76.55
2019-01-10T01:24:27.811Z,76.80
2019-01-10T01:26:58.735Z,76.83
2019-01-10T01:29:29.649Z,77.08
2019-01-10T01:32:00.817Z,77.07
2019-01-10T01:34:32.102Z,77.43
2019-01-10T01:37:03.339Z,77.09
2019-01-10T01:39:34.211Z,77.41
2019-01-10T01:42:05.195Z,77.13
2019-01-10T01:44:36.144Z,77.32
2019-01-10T01:47:07.191Z,77.11
2019-01-10T01:49:38.070Z,77.34
2019-01-10T01:52:09.046Z,77.33
2019-01-10T01:54:39.964Z,77.29
2019-01-10T01:57:11.179Z,77.39
2019-01-10T01:59:42.127Z,77.86
2019-01-10T02:02:13.039Z,78.11
2019-01-10T02:04:43.909Z,78.29
2019-01-10T02:07:14.906Z,78.70
2019-01-10T02:09:45.846Z,78.75
2019-01-10T02:12:16.769Z,78.94
2019-01-10T02:14:47.647Z,79.23
2019-01-10T02:17:18.545Z,78.99
2019-01-10T02:19:49.462Z,79.12
2019-01-10T02:22:20.443Z,79.55
2019-01-10T02:24:52.052Z,79.10
2019-01-10T02:27:23.278Z,78.90
2019-01-10T02:29:54.164Z,79.33
2019-01-10T02:32:25.104Z,78.67
2019-01-10T02:34:56.042Z,78.52
2019-01-10T02:37:27.012Z,78.21
2019-01-10T02:39:57.907Z,78.03
2019-01-10T02:42:28.814Z,78.20
2019-01-10T02:44:59.733Z,78.31
2019-01-10T02:47:30.660Z,78.08
2019-01-10T02:50:01.663Z,78.11
2019-01-10T02:52:32.564Z,78.10
2019-01-10T02:55:03.577Z,78.75
2019-01-10T02:57:34.729Z,79.21
2019-01-10T03:00:07.300Z,79.74
2019-01-10T03:02:38.267Z,79.95
2019-01-10T03:05:10.535Z,80.12
2019-01-10T03:07:41.458Z,79.91
2019-01-10T03:10:14.198Z,80.15
2019-01-10T03:12:45.114Z,79.73
2019-01-10T03:15:16.339Z,80.15
2019-01-10T03:17:47.262Z,79.76
2019-01-10T03:20:21.368Z,79.69
2019-01-10T03:22:52.274Z,78.83
2019-01-10T03:25:23.300Z,78.25
2019-01-10T03:27:54.240Z,78.95
2019-01-10T03:30:25.140Z,79.16
2019-01-10T03:32:56.176Z,79.46
2019-01-10T03:35:27.135Z,79.05
2019-01-10T03:37:58.016Z,78.76
2019-01-10T03:40:28.959Z,78.32
2019-01-10T03:42:59.851Z,78.70
2019-01-10T03:45:30.902Z,78.77
2019-01-10T03:48:01.871Z,79.06
2019-01-10T03:50:33.135Z,78.94
2019-01-10T03:53:04.066Z,78.49
2019-01-10T03:55:35.014Z,78.26
2019-01-10T03:58:05.968Z,78.23
2019-01-10T04:00:36.844Z,77.94
2019-01-10T04:03:07.771Z,77.62
2019-01-10T04:05:38.688Z,77.40
2019-01-10T04:08:09.888Z,77.92
2019-01-10T04:10:40.884Z,77.35
2019-01-10T04:13:11.762Z,77.76
2019-01-10T04:15:42.721Z,77.31
2019-01-10T04:18:13.649Z,77.40
2019-01-10T04:20:44.526Z,77.24
2019-01-10T04:23:15.511Z,77.36
2019-01-10T04:25:46.428Z,76.74
2019-01-10T04:28:17.383Z,76.35
2019-01-10T04:30:48.340Z,76.24
2019-01-10T04:33:19.231Z,76.20
2019-01-10T04:35:50.301Z,76.02
2019-01-10T04:38:21.234Z,75.88
2019-01-10T04:40:52.404Z,75.49
2019-01-10T04:43:23.320Z,75.14
2019-01-10T04:45:54.513Z,75.83
2019-01-10T04:48:25.428Z,75.77
2019-01-10T04:50:56.617Z,75.97
2019-01-10T04:53:27.510Z,74.33
2019-01-10T04:55:58.800Z,74.79
2019-01-10T04:58:29.760Z,74.01
2019-01-10T05:01:00.702Z,74.74
2019-01-10T05:03:31.697Z,75.22
2019-01-10T05:06:03.205Z,74.88
2019-01-10T05:08:34.126Z,74.58
2019-01-10T05:11:05.138Z,74.79
2019-01-10T05:13:36.056Z,74.24
2019-01-10T05:16:06.931Z,73.97
2019-01-10T05:18:37.813Z,73.67
2019-01-10T05:21:09.032Z,74.31
2019-01-10T05:23:39.919Z,73.48
2019-01-10T05:26:10.862Z,73.78
2019-01-10T05:28:42.217Z,73.79
2019-01-10T05:31:13.240Z,73.35
2019-01-10T05:33:44.288Z,73.36
2019-01-10T05:36:15.255Z,73.34
2019-01-10T05:38:46.262Z,73.84
2019-01-10T05:41:17.286Z,74.38
2019-01-10T05:43:48.559Z,74.82
2019-01-10T05:46:19.616Z,74.09
2019-01-10T05:48:50.571Z,74.51
2019-01-10T05:51:21.587Z,74.29
2019-01-10T05:53:52.658Z,73.69
2019-01-10T05:56:23.673Z,74.17
2019-01-10T05:58:54.650Z,74.51
2019-01-10T06:01:25.688Z,75.13
2019-01-10T06:03:57.011Z,75.17
2019-01-10T06:06:27.977Z,74.92
2019-01-10T06:08:59.341Z,74.52
2019-01-10T06:11:30.338Z,74.21
2019-01-10T06:14:01.301Z,74.00
2019-01-10T06:16:32.295Z,73.51
2019-01-10T06:19:03.246Z,73.85
2019-01-10T06:21:34.194Z,73.92
2019-01-10T06:24:05.322Z,73.05
2019-01-10T06:26:36.295Z,73.89
2019-01-10T06:29:07.654Z,73.95
2019-01-10T06:31:38.935Z,74.52
2019-01-10T06:34:13.081Z,74.44
2019-01-10T06:36:44.422Z,73.61
2019-01-10T06:39:18.384Z,73.65
2019-01-10T06:41:48.099Z,73.85
2019-01-10T06:44:19.500Z,73.97
2019-01-10T06:46:51.811Z,74.00
2019-01-10T06:49:22.735Z,74.60
2019-01-10T06:51:53.684Z,75.19
2019-01-10T06:54:24.678Z,75.79
2019-01-10T06:56:57.785Z,76.45
2019-01-10T06:59:29.148Z,76.41
2019-01-10T07:02:00.118Z,76.39
2019-01-10T07:04:31.394Z,76.66
2019-01-10T07:07:02.603Z,76.40
2019-01-10T07:09:33.505Z,76.55
2019-01-10T07:12:04.431Z,77.59
2019-01-10T07:14:35.334Z,76.35
2019-01-10T07:17:06.213Z,76.02
2019-01-10T07:19:47.235Z,76.42
2019-01-10T07:22:19.774Z,76.51
2019-01-10T07:24:53.890Z,76.96
2019-01-10T07:27:25.119Z,76.63
2019-01-10T07:30:00.087Z,76.75
2019-01-10T07:32:31.125Z,76.66
2019-01-10T07:35:11.623Z,77.04
2019-01-10T07:37:42.566Z,76.65
2019-01-10T07:40:18.421Z,76.49
2019-01-10T07:42:49.304Z,76.23
2019-01-10T07:45:30.094Z,76.35
2019-01-10T07:48:01.034Z,75.95
2019-01-10T07:50:37.400Z,76.49
2019-01-10T07:53:10.163Z,76.42
2019-01-10T07:55:41.657Z,76.00
2019-01-10T07:58:12.571Z,76.35
2019-01-10T08:00:43.435Z,76.24
2019-01-10T08:03:14.538Z,76.02
2019-01-10T08:05:45.563Z,76.26
2019-01-10T08:08:16.489Z,76.62
2019-01-10T08:10:47.497Z,76.67
2019-01-10T08:13:19.644Z,76.09
2019-01-10T08:15:50.915Z,75.75
2019-01-10T08:18:22.137Z,73.54
2019-01-10T08:20:53.162Z,71.80
2019-01-10T08:23:24.078Z,72.76
2019-01-10T08:25:55.000Z,71.68
2019-01-10T08:28:25.982Z,71.32
2019-01-10T08:30:57.559Z,72.12
2019-01-10T08:33:28.451Z,73.00
2019-01-10T08:35:59.359Z,73.27
2019-01-10T08:38:30.645Z,73.83
2019-01-10T08:41:27.896Z,73.65
2019-01-10T08:43:59.351Z,74.29
2019-01-10T08:46:30.255Z,74.48
2019-01-10T08:49:07.460Z,74.32
2019-01-10T08:51:39.250Z,74.43
2019-01-10T08:54:10.215Z,73.79
2019-01-10T08:56:41.231Z,74.09
2019-01-10T08:59:38.645Z,74.47
2019-01-10T09:02:09.857Z,74.78
2019-01-10T09:04:40.756Z,73.29
2019-01-10T09:07:12.043Z,72.95
2019-01-10T09:09:42.971Z,72.31
2019-01-10T09:12:13.840Z,72.49
2019-01-10T09:14:45.371Z,72.76
2019-01-10T09:17:16.238Z,72.18
2019-01-10T09:19:47.116Z,72.52
2019-01-10T09:22:18.019Z,72.10
2019-01-10T09:24:48.918Z,71.61
2019-01-10T09:27:19.855Z,71.69
2019-01-10T09:29:50.766Z,71.78
2019-01-10T09:32:21.684Z,71.77
2019-01-10T09:34:52.690Z,71.42
2019-01-10T09:37:23.579Z,69.73
2019-01-10T09:39:54.540Z,69.14
2019-01-10T09:42:25.421Z,69.84
2019-01-10T09:44:56.301Z,69.36
2019-01-10T09:47:27.312Z,69.98
2019-01-10T09:49:58.518Z,68.99
2019-01-10T09:52:29.500Z,68.50
2019-01-10T09:55:00.530Z,68.73
2019-01-10T09:57:31.738Z,68.69
2019-01-10T10:00:02.952Z,67.99
2019-01-10T10:02:33.835Z,68.58
2019-01-10T10:05:05.063Z,67.99
2019-01-10T10:07:35.941Z,68.00
2019-01-10T10:10:09.747Z,67.55
2019-01-10T10:12:40.668Z,67.42
2019-01-10T10:15:12.163Z,66.86
2019-01-10T10:17:43.370Z,67.56
2019-01-10T10:20:18.059Z,66.47
2019-01-10T10:22:49.063Z,66.11
2019-01-10T10:25:20.102Z,67.74
2019-01-10T10:27:51.017Z,66.60
2019-01-10T10:30:23.090Z,66.88
2019-01-10T10:32:54.280Z,67.24
2019-01-10T10:35:25.817Z,66.43
2019-01-10T10:37:56.701Z,66.90
2019-01-10T10:40:27.594Z,66.25
2019-01-10T10:42:58.514Z,66.57
2019-01-10T10:45:29.397Z,66.87
2019-01-10T10:48:00.356Z,67.48
2019-01-10T10:50:31.926Z,66.57
2019-01-10T10:53:06.332Z,66.47
2019-01-10T10:55:37.482Z,66.65
2019-01-10T10:58:08.476Z,67.06
2019-01-10T11:00:39.599Z,67.31
2019-01-10T11:03:10.772Z,67.05
2019-01-10T11:05:42.027Z,66.82
2019-01-10T11:08:12.936Z,64.99
2019-01-10T11:10:43.808Z,66.61
2019-01-10T11:13:14.985Z,66.25
2019-01-10T11:15:45.893Z,66.78
2019-01-10T11:18:16.801Z,65.54
2019-01-10T11:20:47.693Z,66.06
2019-01-10T11:23:18.625Z,65.39
2019-01-10T11:25:49.881Z,66.21
2019-01-10T11:28:20.752Z,65.52
2019-01-10T11:30:51.996Z,65.83
2019-01-10T11:33:23.212Z,66.17
2019-01-10T11:35:54.427Z,65.71
2019-01-10T11:38:25.614Z,65.68
2019-01-10T11:40:56.775Z,65.45
2019-01-10T11:43:27.707Z,66.34
2019-01-10T11:45:58.612Z,65.52
2019-01-10T11:48:29.483Z,65.50
2019-01-10T11:51:00.376Z,65.97
2019-01-10T11:53:35.510Z,65.69
2019-01-10T11:56:03.935Z,66.07
2019-01-10T11:58:35.106Z,65.86
2019-01-10T12:01:07.609Z,65.14
2019-01-10T12:03:38.616Z,64.47
2019-01-10T12:06:09.600Z,62.80
2019-01-10T12:08:40.486Z,62.77
2019-01-10T12:11:11.462Z,60.93
2019-01-10T12:13:42.422Z,61.74
2019-01-10T12:16:13.394Z,60.90
2019-01-10T12:18:44.996Z,62.32
2019-01-10T12:21:15.904Z,61.28
2019-01-10T12:23:46.803Z,63.15
2019-01-10T12:26:17.782Z,64.28
2019-01-10T12:28:48.689Z,65.49
2019-01-10T12:31:19.613Z,64.79
2019-01-10T12:33:50.500Z,63.64
2019-01-10T12:36:21.463Z,64.51
2019-01-10T12:38:52.383Z,64.12
2019-01-10T12:41:23.277Z,64.02
2019-01-10T12:43:54.264Z,63.88
2019-01-10T12:46:25.562Z,63.72
2019-01-10T12:48:56.779Z,64.28
2019-01-10T12:51:28.644Z,64.85
2019-01-10T12:53:59.606Z,64.58
2019-01-10T12:56:30.589Z,63.12
2019-01-10T12:59:01.490Z,64.00
2019-01-10T13:01:32.755Z,64.66
2019-01-10T13:04:03.721Z,64.67
2019-01-10T13:06:34.648Z,65.58
2019-01-10T13:09:08.210Z,64.89
2019-01-10T13:11:39.366Z,65.59
2019-01-10T13:14:10.272Z,65.36
2019-01-10T13:16:46.717Z,66.39
2019-01-10T13:19:13.773Z,64.88
2019-01-10T13:21:45.011Z,64.62
2019-01-10T13:24:15.943Z,65.22
2019-01-10T13:26:47.122Z,64.53
2019-01-10T13:29:18.096Z,64.98
2019-01-10T13:31:49.026Z,64.44
2019-01-10T13:34:19.948Z,65.51
2019-01-10T13:36:50.927Z,65.79
2019-01-10T13:39:21.830Z,66.04
2019-01-10T13:41:52.817Z,65.01
2019-01-10T13:44:23.983Z,64.37
2019-01-10T13:46:55.723Z,64.46
2019-01-10T13:49:27.250Z,64.25
2019-01-10T13:51:58.105Z,64.39
2019-01-10T13:54:29.012Z,64.40
2019-01-10T13:56:59.930Z,64.59
2019-01-10T13:59:30.899Z,63.84
2019-01-10T14:02:01.789Z,64.19
2019-01-10T14:04:32.655Z,64.42
2019-01-10T14:07:03.589Z,64.38
2019-01-10T14:09:34.476Z,64.95
2019-01-10T14:12:05.898Z,64.73
2019-01-10T14:14:37.053Z,63.48
2019-01-10T14:17:08.224Z,64.55
2019-01-10T14:19:39.119Z,64.83
2019-01-10T14:22:10.090Z,64.60
2019-01-10T14:24:41.079Z,64.82
2019-01-10T14:27:11.954Z,64.84
2019-01-10T14:29:42.835Z,64.78
2019-01-10T14:32:13.737Z,65.81
2019-01-10T14:34:44.637Z,65.83
2019-01-10T14:37:15.654Z,66.89
2019-01-10T14:39:46.894Z,66.80
2019-01-10T14:42:17.836Z,67.08
2019-01-10T14:44:48.750Z,67.29
2019-01-10T14:47:19.901Z,67.53
2019-01-10T14:49:50.821Z,67.49
2019-01-10T14:52:46.283Z,68.22
2019-01-10T14:55:41.121Z,67.79
2019-01-10T14:58:12.660Z,68.30
2019-01-10T15:00:43.595Z,68.31
2019-01-10T15:03:14.465Z,67.95
2019-01-10T15:05:45.344Z,68.44
2019-01-10T15:08:16.263Z,69.04
2019-01-10T15:10:47.530Z,69.58
2019-01-10T15:13:18.428Z,69.45
2019-01-10T15:15:49.601Z,69.91
2019-01-10T15:18:20.759Z,70.29
2019-01-10T15:20:51.644Z,71.10
2019-01-10T15:23:22.805Z,71.46
2019-01-10T15:25:53.723Z,72.17
2019-01-10T15:28:24.588Z,71.80
2019-01-10T15:30:55.758Z,71.70
2019-01-10T15:33:26.659Z,71.71
2019-01-10T15:35:57.533Z,71.49
2019-01-10T15:38:28.436Z,72.12
2019-01-10T15:40:59.618Z,72.82
2019-01-10T15:43:30.553Z,72.74
2019-01-10T15:46:01.470Z,72.42
2019-01-10T15:48:32.339Z,72.35
2019-01-10T15:51:03.253Z,72.28
2019-01-10T15:53:34.420Z,72.50
2019-01-10T15:56:05.505Z,72.41
2019-01-10T15:58:36.412Z,72.39
2019-01-10T16:01:07.280Z,72.26
2019-01-10T16:03:38.199Z,72.38
2019-01-10T16:06:09.385Z,72.78
2019-01-10T16:08:40.260Z,72.84
2019-01-10T16:11:11.446Z,73.10
2019-01-10T16:13:42.608Z,73.50
2019-01-10T16:16:13.529Z,73.80
2019-01-10T16:18:44.394Z,73.80
2019-01-10T16:21:15.260Z,73.77
2019-01-10T16:23:46.182Z,74.12
2019-01-10T16:26:17.065Z,74.43
2019-01-10T16:28:48.341Z,74.94
2019-01-10T16:31:19.219Z,75.59
2019-01-10T16:33:50.083Z,75.67
2019-01-10T16:36:22.328Z,75.87
2019-01-10T16:38:53.207Z,75.86
2019-01-10T16:41:24.158Z,75.49
2019-01-10T16:43:55.122Z,74.55
2019-01-10T16:46:26.004Z,74.62
2019-01-10T16:48:57.250Z,75.24
2019-01-10T16:51:28.713Z,75.54
2019-01-10T16:53:59.658Z,75.87
2019-01-10T16:56:30.535Z,75.81
2019-01-10T16:59:01.442Z,75.83
2019-01-10T17:01:32.377Z,75.88
2019-01-10T17:04:03.350Z,75.93
2019-01-10T17:06:34.665Z,76.52
2019-01-10T17:09:08.618Z,76.43
2019-01-10T17:11:39.648Z,76.18
2019-01-10T17:14:10.533Z,76.34
2019-01-10T17:16:41.419Z,76.58
2019-01-10T17:19:12.325Z,76.64
2019-01-10T17:21:43.206Z,77.06
2019-01-10T17:24:14.131Z,77.25
2019-01-10T17:26:45.011Z,77.38
2019-01-10T17:29:15.912Z,76.98
2019-01-10T17:31:46.868Z,76.61
2019-01-10T17:34:17.746Z,76.69
2019-01-10T17:36:49.240Z,76.40
2019-01-10T17:39:20.135Z,76.15
2019-01-10T17:41:51.023Z,76.08
2019-01-10T17:44:21.934Z,76.00
2019-01-10T17:46:52.836Z,76.01
2019-01-10T17:49:23.770Z,76.14
2019-01-10T17:51:54.660Z,76.12
2019-01-10T17:54:25.842Z,75.92
2019-01-10T17:56:56.741Z,75.73
2019-01-10T17:59:27.684Z,75.98
2019-01-10T18:01:58.931Z,75.85
2019-01-10T18:04:30.096Z,76.26
2019-01-10T18:07:01.022Z,76.02
2019-01-10T18:09:31.949Z,76.33
2019-01-10T18:12:04.659Z,76.29
2019-01-10T18:14:35.608Z,76.38
2019-01-10T18:17:06.608Z,76.62
2019-01-10T18:19:37.493Z,76.90
2019-01-10T18:22:08.427Z,76.80
2019-01-10T18:24:39.314Z,77.05
2019-01-10T18:27:10.312Z,76.30
2019-01-10T18:29:41.584Z,76.45
2019-01-10T18:32:12.749Z,76.77
2019-01-10T18:34:43.679Z,77.02
2019-01-10T18:37:14.591Z,77.65
2019-01-10T18:39:45.501Z,77.63
2019-01-10T18:42:16.399Z,78.42
2019-01-10T18:44:47.603Z,78.27
2019-01-10T18:47:18.569Z,78.72
2019-01-10T18:49:51.652Z,78.95
2019-01-10T18:52:22.587Z,78.86
2019-01-10T18:54:53.492Z,78.64
2019-01-10T18:57:24.389Z,78.73
2019-01-10T18:59:55.324Z,79.06
2019-01-10T19:03:16.175Z,79.10
2019-01-10T19:06:47.354Z,79.92
2019-01-10T19:10:21.898Z,79.98
2019-01-10T19:12:51.511Z,80.21
2019-01-10T19:15:23.338Z,80.22
2019-01-10T19:17:54.246Z,79.93
2019-01-10T19:20:28.406Z,80.40
2019-01-10T19:23:01.858Z,80.57
2019-01-10T19:25:33.398Z,81.03
2019-01-10T19:28:04.273Z,81.53
2019-01-10T19:30:38.407Z,81.45
2019-01-10T19:33:09.467Z,81.54
2019-01-10T19:35:42.017Z,81.88
2019-01-10T19:38:13.552Z,82.12
2019-01-10T19:40:44.540Z,82.04
2019-01-10T19:43:17.130Z,82.10
2019-01-10T19:45:48.314Z,82.34
2019-01-10T19:48:19.815Z,82.60
2019-01-10T19:50:52.986Z,83.08
2019-01-10T19:53:23.878Z,83.09
2019-01-10T19:55:55.721Z,83.40
2019-01-10T19:58:26.624Z,83.10
2019-01-10T20:00:58.476Z,83.34
2019-01-10T20:03:29.737Z,83.28
2019-01-10T20:06:01.096Z,83.52
2019-01-10T20:08:32.351Z,84.13
2019-01-10T20:11:03.335Z,84.21
2019-01-10T20:13:37.300Z,84.15
2019-01-10T20:16:08.773Z,84.73
2019-01-10T20:18:40.324Z,84.81
2019-01-10T20:21:13.279Z,85.26
2019-01-10T20:23:44.506Z,84.59
2019-01-10T20:26:16.580Z,84.64
2019-01-10T20:28:47.905Z,84.32
2019-01-10T20:31:19.067Z,84.74
2019-01-10T20:33:49.981Z,84.92
2019-01-10T20:36:22.221Z,85.78
2019-01-10T20:38:53.165Z,85.86
2019-01-10T20:41:24.052Z,86.37
2019-01-10T20:43:55.005Z,86.52
2019-01-10T20:46:25.910Z,86.95
2019-01-10T20:48:56.786Z,87.15
2019-01-10T20:51:27.694Z,87.46
2019-01-10T20:53:58.568Z,87.80
2019-01-10T20:56:29.507Z,88.02
2019-01-10T20:59:00.678Z,87.89
2019-01-10T21:01:32.148Z,88.08
2019-01-10T21:04:03.187Z,87.93
2019-01-10T21:06:36.838Z,88.18
2019-01-10T21:09:13.115Z,88.56
2019-01-10T21:11:43.317Z,89.06
2019-01-10T21:14:14.271Z,89.28
2019-01-10T21:16:45.168Z,89.37
2019-01-10T21:19:16.068Z,89.21
2019-01-10T21:21:46.966Z,89.20
2019-01-10T21:24:18.142Z,89.38
2019-01-10T21:26:49.419Z,89.76
2019-01-10T21:29:26.300Z,89.89
2019-01-10T21:31:57.241Z,90.20
2019-01-10T21:34:28.217Z,90.39
2019-01-10T21:36:59.084Z,90.40
2019-01-10T21:39:30.001Z,90.58
2019-01-10T21:42:01.385Z,90.76
2019-01-10T21:44:32.392Z,91.01
2019-01-10T21:47:03.315Z,91.17
2019-01-10T21:49:34.203Z,91.15
2019-01-10T21:52:05.236Z,91.14
2019-01-10T21:54:37.967Z,91.29
2019-01-10T21:57:09.173Z,91.45
2019-01-10T21:59:40.065Z,91.38
2019-01-10T22:02:10.992Z,91.32
2019-01-10T22:04:42.158Z,91.33
2019-01-10T22:07:13.042Z,91.17
2019-01-10T22:09:43.968Z,91.17
2019-01-10T22:12:14.903Z,90.97
2019-01-10T22:14:45.846Z,90.80
2019-01-10T22:17:16.725Z,90.72
2019-01-10T22:19:47.884Z,90.76
2019-01-10T22:22:19.070Z,91.06
2019-01-10T22:24:50.093Z,90.93
2019-01-10T22:27:21.017Z,91.03
2019-01-10T22:29:51.903Z,91.06
2019-01-10T22:32:22.840Z,91.24
2019-01-10T22:34:53.818Z,91.30
2019-01-10T22:37:28.971Z,91.34
2019-01-10T22:39:57.444Z,91.50
2019-01-10T22:42:28.399Z,91.49
2019-01-10T22:44:59.281Z,91.26
2019-01-10T22:47:30.188Z,91.17
2019-01-10T22:50:01.062Z,91.07
2019-01-10T22:52:32.379Z,90.95
2019-01-10T22:55:03.333Z,90.97
2019-01-10T22:57:34.548Z,91.21
2019-01-10T23:00:12.242Z,91.53
2019-01-10T23:02:43.520Z,91.46
2019-01-10T23:05:14.542Z,91.25
2019-01-10T23:07:45.887Z,91.18
2019-01-10T23:10:16.854Z,90.98
2019-01-10T23:12:47.736Z,90.96
2019-01-10T23:15:35.771Z,91.08
2019-01-10T23:18:07.773Z,91.21
2019-01-10T23:20:38.722Z,91.24
2019-01-10T23:23:11.517Z,91.07
2019-01-10T23:25:42.497Z,91.23
2019-01-10T23:28:13.428Z,90.96
2019-01-10T23:30:59.603Z,90.88
2019-01-10T23:33:30.938Z,90.93
2019-01-10T23:36:06.074Z,90.77
2019-01-10T23:38:37.156Z,90.62
2019-01-10T23:41:08.141Z,90.44
2019-01-10T23:43:39.120Z,90.29
2019-01-10T23:46:10.148Z,90.47
2019-01-10T23:48:41.319Z,90.64
2019-01-10T23:51:12.561Z,90.75
2019-01-10T23:53:43.463Z,90.44
2019-01-10T23:56:14.331Z,90.59
2019-01-10T23:58:45.528Z,90.55
